createdAt,value
2023-03-02T00:00:54.739Z,-27.3
2023-03-02T00:04:57.771Z,-27.1
2023-03-02T00:06:59.255Z,-27.5
2023-03-02T00:11:02.661Z,-27.3
2023-03-02T00:15:06.739Z,-27.4
2023-03-02T00:17:07.944Z,-27.6
2023-03-02T00:19:09.205Z,-27.4
2023-03-02T00:21:10.921Z,-27.2
2023-03-02T00:23:12.428Z,-27.8
2023-03-02T00:25:14.138Z,-27.3
2023-03-02T00:27:15.337Z,-27.4
2023-03-02T00:31:18.364Z,-27.5
2023-03-02T00:33:20.173Z,-27.3
2023-03-02T00:35:22.024Z,-27.1
2023-03-02T00:37:23.633Z,-27.3
2023-03-02T00:41:26.266Z,-27.4
2023-03-02T00:43:27.942Z,-27.3
2023-03-02T00:47:31.694Z,-27.4
2023-03-02T00:49:33.317Z,-27.2
2023-03-02T00:51:34.700Z,-27.3
2023-03-02T00:53:36.240Z,-27.3
2023-03-02T00:59:40.634Z,-27.2
2023-03-02T01:01:41.887Z,-27.3
2023-03-02T01:03:42.989Z,-27.1
2023-03-02T01:05:44.142Z,-27.2
2023-03-02T01:09:47.038Z,-27.5
2023-03-02T01:11:48.672Z,-27.2
2023-03-02T01:13:50.619Z,-27.3
2023-03-02T01:15:52.388Z,-27.4
2023-03-02T01:17:54.009Z,-27.2
2023-03-02T01:19:55.598Z,-27.6
2023-03-02T01:23:59.368Z,-27.3
2023-03-02T01:26:01.254Z,-27
2023-03-02T01:30:03.804Z,-27.2
2023-03-02T01:32:05.237Z,-27.4
2023-03-02T01:34:06.403Z,-27
2023-03-02T01:36:07.846Z,-27.4
2023-03-02T01:42:12.232Z,-27.3
2023-03-02T01:44:13.957Z,-27.4
2023-03-02T01:46:15.532Z,-27.3
2023-03-02T01:48:17.285Z,-27.2
2023-03-02T01:50:18.930Z,-27.2
2023-03-02T01:52:20.369Z,-52.1
2023-03-02T01:54:22.249Z,-27.1
2023-03-02T01:56:24.112Z,-27.2
2023-03-02T01:58:25.843Z,-27.5
2023-03-02T02:00:27.048Z,-27.2
2023-03-02T02:02:28.238Z,-27.2
2023-03-02T02:04:29.822Z,-27.3
2023-03-02T02:06:31.900Z,-27.1
2023-03-02T02:08:33.273Z,-27.2
2023-03-02T02:10:35.132Z,-27.4
2023-03-02T02:12:37.136Z,-27.3
2023-03-02T02:14:38.397Z,-27.4
2023-03-02T02:16:39.651Z,-27.2
2023-03-02T02:18:41.076Z,-27.2
2023-03-02T02:20:43.172Z,-27.3
2023-03-02T02:24:45.507Z,-27.2
2023-03-02T02:28:49.066Z,-27.1
2023-03-02T02:30:51.154Z,-27.2
2023-03-02T02:32:53.092Z,-27.3
2023-03-02T02:34:54.137Z,-27.5
2023-03-02T02:36:56.144Z,-27.2
2023-03-02T02:38:57.502Z,-27.3
2023-03-02T02:40:59.438Z,-27.3
2023-03-02T02:43:00.991Z,-27.2
2023-03-02T02:45:02.607Z,-27.4
2023-03-02T02:47:04.345Z,-27.1
2023-03-02T02:49:06.045Z,-27.5
2023-03-02T02:51:07.924Z,-27.3
2023-03-02T02:53:09.213Z,-27.2
2023-03-02T02:55:10.763Z,-27.4
2023-03-02T02:57:12.681Z,-27
2023-03-02T02:59:14.667Z,-27.1
2023-03-02T03:01:16.031Z,-27.3
2023-03-02T03:03:17.425Z,-27.1
2023-03-02T03:06:02.973Z,-27.3
2023-03-02T03:08:04.584Z,-27.3
2023-03-02T03:10:06.107Z,-27
2023-03-02T03:12:07.700Z,-27.5
2023-03-02T03:18:12.296Z,-27.2
2023-03-02T03:20:14.419Z,-27.5
2023-03-02T03:22:16.131Z,-27.3
2023-03-02T03:24:17.265Z,-27.3
2023-03-02T03:26:19.321Z,-27.2
2023-03-02T03:28:21.383Z,-27.3
2023-03-02T03:30:22.889Z,-27.3
2023-03-02T03:32:24.519Z,-27.3
2023-03-02T03:34:25.635Z,-27.1
2023-03-02T03:36:26.712Z,-27.2
2023-03-02T03:38:28.140Z,-27.2
2023-03-02T03:40:29.235Z,-27.3
2023-03-02T03:42:31.017Z,-27.2
2023-03-02T03:44:32.169Z,-27.3
2023-03-02T03:48:35.950Z,-27.4
2023-03-02T03:50:37.818Z,-27.5
2023-03-02T03:52:39.171Z,-27.4
2023-03-02T03:54:40.732Z,-27.5
2023-03-02T03:58:44.635Z,-27
2023-03-02T04:00:46.441Z,-51.9
2023-03-02T04:02:48.399Z,-27.2
2023-03-02T04:04:49.727Z,-27.2
2023-03-02T04:06:51.262Z,-27.2
2023-03-02T04:08:52.972Z,-27.3
2023-03-02T04:10:54.733Z,-27.2
2023-03-02T04:12:56.193Z,-27.5
2023-03-02T04:14:57.372Z,-27.4
2023-03-02T04:16:59.227Z,-27.1
2023-03-02T04:19:00.370Z,-27.4
2023-03-02T04:21:02.192Z,-27.2
2023-03-02T04:23:03.413Z,-27.2
2023-03-02T04:25:04.958Z,-27.1
2023-03-02T04:27:06.863Z,-27.1
2023-03-02T04:31:10.187Z,-27.2
2023-03-02T04:33:11.325Z,-27.5
2023-03-02T04:35:13.215Z,-27.2
2023-03-02T04:37:14.828Z,-51.5
2023-03-02T04:43:20.318Z,-27.1
2023-03-02T04:45:21.721Z,-27.5
2023-03-02T04:47:23.379Z,-27.5
2023-03-02T04:49:25.082Z,-27.5
2023-03-02T04:51:26.411Z,-27.4
2023-03-02T04:53:27.877Z,-27.1
2023-03-02T04:55:29.192Z,-27.2
2023-03-02T04:57:30.424Z,-27.3
2023-03-02T04:59:31.991Z,-27.3
2023-03-02T05:01:33.200Z,-51.6
2023-03-02T05:03:34.724Z,-27.1
2023-03-02T05:05:35.966Z,-27.1
2023-03-02T05:07:37.782Z,-27.1
2023-03-02T05:09:38.902Z,-27.1
2023-03-02T05:11:40.839Z,-27.2
2023-03-02T05:13:42.191Z,-27.4
2023-03-02T05:15:43.672Z,-27
2023-03-02T05:17:44.726Z,-27.2
2023-03-02T05:19:46.142Z,-27
2023-03-02T05:21:48.228Z,-27.3
2023-03-02T05:25:51.160Z,-27.3
2023-03-02T05:27:52.439Z,-27.3
2023-03-02T05:29:53.758Z,-27.2
2023-03-02T05:31:55.454Z,-27.6
2023-03-02T05:33:56.956Z,-27.1
2023-03-02T05:35:58.449Z,-27.1
2023-03-02T05:40:01.611Z,-27.2
2023-03-02T05:42:03.332Z,-27.5
2023-03-02T05:46:06.434Z,-27.1
2023-03-02T05:48:08.407Z,-27.2
2023-03-02T05:50:09.950Z,-27.2
2023-03-02T05:52:11.775Z,-27.3
2023-03-02T05:58:16.405Z,-27.2
2023-03-02T06:00:18.283Z,-27.4
2023-03-02T06:02:20.119Z,-27.4
2023-03-02T06:04:21.540Z,-27.3
2023-03-02T06:06:22.748Z,-27.1
2023-03-02T06:08:24.133Z,-27.5
2023-03-02T06:10:25.757Z,-27.3
2023-03-02T06:12:27.768Z,-27.3
2023-03-02T06:14:29.582Z,-27.4
2023-03-02T06:16:31.773Z,-27.3
2023-03-02T06:18:32.973Z,-27.2
2023-03-02T06:20:34.103Z,-27.2
2023-03-02T06:22:36.044Z,-27.1
2023-03-02T06:24:37.191Z,-27
2023-03-02T06:28:51.811Z,-27.1
2023-03-02T06:30:45.556Z,-27.2
2023-03-02T06:32:47.335Z,-27.3
2023-03-02T06:34:48.541Z,-27.3
2023-03-02T06:36:50.631Z,-27.3
2023-03-02T06:38:52.159Z,-27.1
2023-03-02T06:40:53.679Z,-27
2023-03-02T06:42:55.301Z,-27.2
2023-03-02T06:44:56.695Z,-27.1
2023-03-02T06:46:58.514Z,-27.2
2023-03-02T06:49:00.168Z,-52.1
2023-03-02T06:51:01.701Z,-27.3
2023-03-02T06:53:04.062Z,-27.2
2023-03-02T06:55:05.330Z,-27.5
2023-03-02T06:57:07.053Z,-11.7
2023-03-02T06:59:08.129Z,-5.9
2023-03-02T07:01:09.907Z,-33.3
2023-03-02T07:03:11.208Z,-31
2023-03-02T07:05:12.834Z,2
2023-03-02T07:07:14.770Z,1.1
2023-03-02T07:11:17.809Z,13.6
2023-03-02T07:13:19.444Z,15.4
2023-03-02T07:15:20.704Z,18.4
2023-03-02T07:17:23.126Z,21.5
2023-03-02T07:21:24.975Z,2.9
2023-03-02T07:23:26.606Z,8.3
2023-03-02T07:25:27.950Z,35.4
2023-03-02T07:27:29.276Z,37.3
2023-03-02T07:29:30.407Z,41.8
2023-03-02T07:31:32.463Z,43.6
2023-03-02T07:33:33.822Z,46.2
2023-03-02T07:35:35.057Z,49.5
2023-03-02T07:37:37.641Z,52.8
2023-03-02T07:39:39.298Z,82.7
2023-03-02T07:41:40.923Z,82.7
2023-03-02T07:43:42.214Z,82.9
2023-03-02T07:45:43.498Z,82.9
2023-03-02T07:47:45.281Z,82.7
2023-03-02T07:49:46.195Z,82.2
2023-03-02T07:53:49.169Z,82.3
2023-03-02T07:55:50.832Z,56.7
2023-03-02T07:57:51.992Z,81.4
2023-03-02T07:59:53.532Z,80.9
2023-03-02T08:05:58.653Z,80.1
2023-03-02T08:08:00.286Z,79.69
2023-03-02T08:10:01.555Z,77.9
2023-03-02T08:12:03.370Z,62
2023-03-02T08:14:04.473Z,77.3
2023-03-02T08:16:05.735Z,76.9
2023-03-02T08:18:07.750Z,76.4
2023-03-02T08:20:08.834Z,76.4
2023-03-02T08:22:09.690Z,75.4
2023-03-02T08:24:11.563Z,73.5
2023-03-02T08:26:13.922Z,75.5
2023-03-02T08:28:13.585Z,74.69
2023-03-02T08:30:15.410Z,74
2023-03-02T08:32:17.220Z,73.6
2023-03-02T08:34:18.845Z,73.1
2023-03-02T08:36:20.536Z,71.9
2023-03-02T08:38:21.482Z,71.8
2023-03-02T08:40:22.433Z,70.19
2023-03-02T08:42:23.928Z,69.6
2023-03-02T08:44:25.464Z,68.69
2023-03-02T08:48:28.813Z,68
2023-03-02T08:50:30.182Z,68.1
2023-03-02T08:52:33.058Z,44.4
2023-03-02T08:54:34.795Z,67.19
2023-03-02T08:56:36.288Z,65.69
2023-03-02T08:58:37.214Z,64.19
2023-03-02T09:00:38.542Z,61.9
2023-03-02T09:02:39.949Z,61.5
2023-03-02T09:04:41.749Z,59.4
2023-03-02T09:06:43.070Z,58
2023-03-02T09:08:44.399Z,56.7
2023-03-02T09:10:45.781Z,55.4
2023-03-02T09:12:47.137Z,54.3
2023-03-02T09:14:48.651Z,52.5
2023-03-02T09:16:49.652Z,33.3
2023-03-02T09:18:51.045Z,49.3
2023-03-02T09:20:52.797Z,47.1
2023-03-02T09:24:56.207Z,45.1
2023-03-02T09:26:57.273Z,43.5
2023-03-02T09:28:58.574Z,42
2023-03-02T09:30:59.998Z,41.3
2023-03-02T09:33:01.142Z,39.3
2023-03-02T09:35:02.132Z,37.5
2023-03-02T09:37:03.547Z,37
2023-03-02T09:39:04.656Z,35.7
2023-03-02T09:41:05.740Z,20.7
2023-03-02T09:47:10.334Z,28.1
2023-03-02T09:49:11.945Z,27.4
2023-03-02T09:51:13.577Z,27
2023-03-02T09:51:57.354Z,26.8
2023-03-02T09:56:01.013Z,13.7
2023-03-02T09:58:02.849Z,20.8
2023-03-02T10:02:06.177Z,18.79
2023-03-02T10:04:07.957Z,17.1
2023-03-02T10:06:09.132Z,16.7
2023-03-02T10:08:10.791Z,15.9
2023-03-02T10:12:13.865Z,15.8
2023-03-02T10:14:15.643Z,15.1
2023-03-02T10:16:17.557Z,14.3
2023-03-02T10:18:19.362Z,12.7
2023-03-02T10:24:23.236Z,11.1
2023-03-02T10:26:24.409Z,11.2
2023-03-02T10:28:26.027Z,12.1
2023-03-02T10:30:27.461Z,9.6
2023-03-02T10:32:28.444Z,8.8
2023-03-02T10:34:30.154Z,9.2
2023-03-02T10:38:32.631Z,9
2023-03-02T10:40:33.974Z,8.3
2023-03-02T10:42:34.869Z,-27.5
2023-03-02T10:44:35.901Z,-29.9
2023-03-02T10:50:39.411Z,-27.3
2023-03-02T10:52:44.177Z,-27.4
2023-03-02T10:54:42.047Z,-27.2
2023-03-02T10:56:43.677Z,-27.4
2023-03-02T10:58:45.370Z,-27.3
2023-03-02T11:00:47.627Z,-27.5
2023-03-02T11:02:49.308Z,-27.5
2023-03-02T11:04:50.396Z,-27.5
2023-03-02T11:06:53.587Z,-27.5
2023-03-02T11:08:53.045Z,-30.8
2023-03-02T11:10:55.712Z,-27.4
2023-03-02T11:12:56.032Z,-33.7
2023-03-02T11:14:58.008Z,-37
2023-03-02T11:16:59.177Z,-27.5
2023-03-02T11:19:00.685Z,-27.4
2023-03-02T11:21:02.562Z,-27.1
2023-03-02T11:23:04.164Z,-27.5
2023-03-02T11:25:05.139Z,-27.5
2023-03-02T11:27:06.116Z,-27.5
2023-03-02T11:29:07.371Z,-27.5
2023-03-02T11:31:09.266Z,-27.5
2023-03-02T11:33:10.410Z,-27.5
2023-03-02T11:37:13.336Z,-27.3
2023-03-02T11:39:14.893Z,-27.5
2023-03-02T11:41:16.152Z,-27.4
2023-03-02T11:43:17.996Z,-27.5
2023-03-02T11:49:22.758Z,-45.2
2023-03-02T11:51:24.207Z,-27.4
2023-03-02T11:53:26.138Z,-27.5
2023-03-02T11:55:27.348Z,-27.3
2023-03-02T11:57:28.778Z,-27.4
2023-03-02T11:59:30.287Z,-27.5
2023-03-02T12:01:32.243Z,-27.7
2023-03-02T12:03:33.647Z,-27.4
2023-03-02T12:05:34.980Z,-27.3
2023-03-02T12:07:36.771Z,-27.7
2023-03-02T12:09:37.833Z,-28.3
2023-03-02T12:11:38.800Z,-53.8
2023-03-02T12:13:39.986Z,-27.3
2023-03-02T12:15:41.389Z,-27.5
2023-03-02T12:17:43.172Z,-27.4
2023-03-02T12:19:44.595Z,-27.5
2023-03-02T12:21:45.818Z,-27.3
2023-03-02T12:23:47.629Z,-27.4
2023-03-02T12:25:49.467Z,-27.6
2023-03-02T12:27:50.774Z,-27.5
2023-03-02T12:31:53.945Z,-27.6
2023-03-02T12:33:55.363Z,-27.2
2023-03-02T12:35:57.039Z,-27.3
2023-03-02T12:37:58.244Z,-27.5
2023-03-02T12:40:00.960Z,-27.5
2023-03-02T12:42:01.444Z,-27.4
2023-03-02T12:48:05.417Z,-27.3
2023-03-02T12:50:06.123Z,-27.4
2023-03-02T12:52:07.589Z,-27.2
2023-03-02T12:54:09.332Z,-53.8
2023-03-02T12:56:10.299Z,-53.9
2023-03-02T12:58:11.857Z,-54
2023-03-02T13:02:14.805Z,-27.5
2023-03-02T13:04:16.100Z,-27.3
2023-03-02T13:06:19.588Z,-27.6
2023-03-02T13:08:19.095Z,-27.4
2023-03-02T13:14:23.298Z,-27.3
2023-03-02T13:18:26.205Z,-27.4
2023-03-02T13:20:27.916Z,-27.4
2023-03-02T13:22:29.690Z,-27.6
2023-03-02T13:24:31.239Z,-27.2
2023-03-02T13:28:33.924Z,-27.4
2023-03-02T13:30:35.486Z,-27.4
2023-03-02T13:32:36.508Z,39.4
2023-03-02T13:34:38.302Z,56.1
2023-03-02T13:38:41.356Z,51.6
2023-03-02T13:40:42.588Z,50.5
2023-03-02T13:44:45.302Z,45.8
2023-03-02T13:46:46.675Z,27.8
2023-03-02T13:48:48.642Z,43
2023-03-02T13:50:50.003Z,40.9
2023-03-02T13:56:54.033Z,34.09
2023-03-02T13:58:55.569Z,28.5
2023-03-02T14:00:57.016Z,26.3
2023-03-02T14:02:58.221Z,25.7
2023-03-02T14:04:59.694Z,24
2023-03-02T14:07:00.365Z,22
2023-03-02T14:13:04.288Z,17.2
2023-03-02T14:15:05.915Z,17
2023-03-02T14:17:07.083Z,16.4
2023-03-02T14:19:08.425Z,15.7
2023-03-02T14:21:10.138Z,15.2
2023-03-02T14:23:11.489Z,14.3
2023-03-02T14:25:12.922Z,13.5
2023-03-02T14:27:13.946Z,12.4
2023-03-02T14:29:16.042Z,12.3
2023-03-02T14:31:17.530Z,11.4
2023-03-02T14:33:18.899Z,10.1
2023-03-02T14:35:20.145Z,9
2023-03-02T14:37:21.552Z,9.1
2023-03-02T14:39:23.247Z,9.39
2023-03-02T14:41:24.695Z,-35
2023-03-02T14:43:25.707Z,-27.4
2023-03-02T14:45:28.401Z,-27.7
2023-03-02T14:47:28.391Z,-27.4
2023-03-02T14:49:30.061Z,-27.2
2023-03-02T14:51:31.384Z,-27.6
2023-03-02T14:55:35.288Z,-27.5
2023-03-02T14:57:36.275Z,-27.5
2023-03-02T14:59:37.813Z,-27.3
2023-03-02T15:01:39.171Z,-27.5
2023-03-02T15:03:40.636Z,-54.1
2023-03-02T15:05:44.201Z,-28.3
2023-03-02T15:09:44.481Z,-28.3
2023-03-02T15:11:45.523Z,-28.3
2023-03-02T15:13:46.893Z,-28.3
2023-03-02T15:15:48.639Z,-28.2
2023-03-02T15:17:49.712Z,-28.2
2023-03-02T15:19:50.802Z,-28.2
2023-03-02T15:21:52.609Z,-55.2
2023-03-02T15:23:54.152Z,-28.2
2023-03-02T15:25:55.246Z,-28.2
2023-03-02T15:27:56.404Z,-28.3
2023-03-02T15:31:58.453Z,-28.4
2023-03-02T15:33:59.727Z,-28.3
2023-03-02T15:36:00.904Z,-28.6
2023-03-02T15:38:01.818Z,-28.4
2023-03-02T15:42:04.360Z,-28.4
2023-03-02T15:44:05.594Z,-28.2
2023-03-02T15:46:06.637Z,-30.6
2023-03-02T15:48:07.881Z,-34
2023-03-02T15:52:10.254Z,-28.2
2023-03-02T15:54:11.754Z,-28.5
2023-03-02T15:56:12.769Z,-28.4
2023-03-02T15:58:13.648Z,-28.4
2023-03-02T16:02:16.750Z,-53
2023-03-02T16:04:18.296Z,-29.4
2023-03-02T16:06:20.069Z,-28.2
2023-03-02T16:08:21.263Z,-28
2023-03-02T16:10:23.019Z,-28.2
2023-03-02T16:12:24.054Z,-28.3
2023-03-02T16:14:25.889Z,-33.7
2023-03-02T16:16:27.442Z,-29.5
2023-03-02T16:20:29.968Z,-28.3
2023-03-02T16:24:32.882Z,-28.4
2023-03-02T16:26:34.349Z,-28.6
2023-03-02T16:28:35.330Z,-28.4
2023-03-02T16:30:36.410Z,-28.5
2023-03-02T16:34:39.515Z,-28.3
2023-03-02T16:36:40.641Z,-28.5
2023-03-02T16:37:24.452Z,-54.4
2023-03-02T16:41:27.829Z,-28.3
2023-03-02T16:43:29.414Z,-54.3
2023-03-02T16:45:31.326Z,-28.4
2023-03-02T16:47:33.007Z,-54.4
2023-03-02T16:49:34.745Z,-28.4
2023-03-02T16:51:36.417Z,-28.6
2023-03-02T16:53:38.022Z,-28.5
2023-03-02T16:55:38.997Z,-28.5
2023-03-02T16:57:40.133Z,-28.4
2023-03-02T16:59:41.495Z,-28.3
2023-03-02T17:01:42.554Z,-28.4
2023-03-02T17:03:43.797Z,-54.2
2023-03-02T17:05:45.521Z,-28.7
2023-03-02T17:07:46.702Z,-28.4
2023-03-02T17:09:48.016Z,-28.4
2023-03-02T17:11:49.587Z,-28.4
2023-03-02T17:13:50.991Z,-28.3
2023-03-02T17:15:52.218Z,-28.4
2023-03-02T17:17:53.251Z,-28.5
2023-03-02T17:19:54.818Z,-28.4
2023-03-02T17:21:56.017Z,-28.4
2023-03-02T17:23:57.877Z,-28.5
2023-03-02T17:28:01.271Z,-28.1
2023-03-02T17:30:02.851Z,-28.4
2023-03-02T17:32:04.460Z,-28.4
2023-03-02T17:34:05.356Z,-28.3
2023-03-02T17:36:06.539Z,-28.3
2023-03-02T17:38:07.482Z,-28.4
2023-03-02T17:40:08.514Z,-28.6
2023-03-02T17:44:11.364Z,-28.3
2023-03-02T17:46:13.271Z,-28.3
2023-03-02T17:48:14.314Z,-28.4
2023-03-02T17:50:15.315Z,-38.8
2023-03-02T17:54:18.262Z,-28.3
2023-03-02T17:56:19.533Z,-28.4
2023-03-02T18:00:23.391Z,-28.4
2023-03-02T18:02:25.330Z,-53.6
2023-03-02T18:04:26.909Z,-37
2023-03-02T18:06:28.492Z,-28.5
2023-03-02T18:12:32.921Z,-28.5
2023-03-02T18:14:34.534Z,-28.3
2023-03-02T18:16:36.018Z,-28.4
2023-03-02T18:18:37.233Z,-28.5
2023-03-02T18:20:38.813Z,-28.5
2023-03-02T18:22:39.990Z,-28.6
2023-03-02T18:26:43.064Z,-28.4
2023-03-02T18:28:44.980Z,-28.6
2023-03-02T18:30:46.277Z,-28.4
2023-03-02T18:32:47.116Z,-28.4
2023-03-02T18:38:51.282Z,-28.4
2023-03-02T18:40:53.157Z,-28.2
2023-03-02T18:42:54.888Z,-28.5
2023-03-02T18:44:56.633Z,-28.4
2023-03-02T18:46:57.892Z,-28.4
2023-03-02T18:48:58.936Z,-28.6
2023-03-02T18:51:00.374Z,-28.4
2023-03-02T18:53:01.897Z,-28.2
2023-03-02T18:55:03.245Z,-28.6
2023-03-02T18:57:05.129Z,-28.5
2023-03-02T18:59:07.061Z,-28.4
2023-03-02T19:01:08.417Z,-54
2023-03-02T19:03:09.769Z,-28.5
2023-03-02T19:05:11.180Z,-28.5
2023-03-02T19:07:12.408Z,-28.2
2023-03-02T19:09:14.268Z,-28.3
2023-03-02T19:11:16.237Z,-28.6
2023-03-02T19:13:17.236Z,-28.6
2023-03-02T19:15:18.769Z,-28.7
2023-03-02T19:17:20.343Z,-28.4
2023-03-02T19:21:23.305Z,-28.4
2023-03-02T19:25:26.374Z,-28.6
2023-03-02T19:27:28.104Z,-28.3
2023-03-02T19:29:29.987Z,-28.4
2023-03-02T19:31:31.571Z,-28.6
2023-03-02T19:33:32.944Z,-28.4
2023-03-02T19:35:34.094Z,-28.4
2023-03-02T19:37:35.721Z,-28.4
2023-03-02T19:39:37.076Z,-28.3
2023-03-02T19:41:38.710Z,-28.3
2023-03-02T19:43:40.032Z,-28.5
2023-03-02T19:45:41.606Z,-28.2
2023-03-02T19:47:43.029Z,-28.3
2023-03-02T19:49:44.423Z,-28.2
2023-03-02T19:51:46.382Z,-28.4
2023-03-02T19:53:47.470Z,-28.4
2023-03-02T19:55:48.741Z,-28.2
2023-03-02T19:57:49.939Z,-28.3
2023-03-02T19:59:51.106Z,-28.3
2023-03-02T20:01:52.277Z,-28.3
2023-03-02T20:03:53.539Z,-28.6
2023-03-02T20:05:55.006Z,-28.4
2023-03-02T20:07:56.804Z,-28.4
2023-03-02T20:09:58.580Z,-28.4
2023-03-02T20:11:59.720Z,-28.3
2023-03-02T20:14:01.306Z,-28.6
2023-03-02T20:20:06.271Z,-28.3
2023-03-02T20:22:08.119Z,-28.5
2023-03-02T20:24:09.710Z,-28.3
2023-03-02T20:26:11.538Z,-28.4
2023-03-02T20:28:13.477Z,-28.5
2023-03-02T20:30:15.327Z,-28.4
2023-03-02T20:32:16.895Z,-28.2
2023-03-02T20:34:18.733Z,-28.4
2023-03-02T20:36:20.389Z,-28.4
2023-03-02T20:38:21.934Z,-28.5
2023-03-02T20:40:23.924Z,-28.4
2023-03-02T20:42:25.116Z,-28.4
2023-03-02T20:44:26.175Z,-28.4
2023-03-02T20:46:27.360Z,-28.3
2023-03-02T20:48:28.374Z,-28.5
2023-03-02T20:50:30.372Z,-28.3
2023-03-02T20:52:31.819Z,-28.7
2023-03-02T20:54:33.831Z,-28.7
2023-03-02T20:56:35.369Z,-28.5
2023-03-02T20:58:36.550Z,-28.5
2023-03-02T21:02:39.312Z,-28.4
2023-03-02T21:04:41.066Z,-28.4
2023-03-02T21:06:42.198Z,-28.4
2023-03-02T21:08:44.183Z,-28.5
2023-03-02T21:10:45.591Z,-28.6
2023-03-02T21:12:47.182Z,-28.5
2023-03-02T21:16:50.124Z,-28.3
2023-03-02T21:18:51.416Z,-28.3
2023-03-02T21:20:53.298Z,-28.5
2023-03-02T21:22:54.380Z,-28.5
2023-03-02T21:24:55.735Z,-28.3
2023-03-02T21:26:57.201Z,-28.4
2023-03-02T21:28:58.848Z,-28.5
2023-03-02T21:31:00.308Z,-28.4
2023-03-02T21:33:02.277Z,-28.3
2023-03-02T21:35:03.597Z,-28.5
2023-03-02T21:39:06.679Z,-28.4
2023-03-02T21:41:08.032Z,-28.5
2023-03-02T21:43:09.052Z,-28.7
2023-03-02T21:45:10.741Z,-28.5
2023-03-02T21:47:12.185Z,-28.3
2023-03-02T21:49:13.840Z,-28.4
2023-03-02T21:51:15.280Z,-28.8
2023-03-02T21:53:16.529Z,-28.8
2023-03-02T21:55:17.999Z,-29
2023-03-02T22:01:22.395Z,-28.3
2023-03-02T22:03:23.623Z,-28.8
2023-03-02T22:05:25.352Z,-28.9
2023-03-02T22:07:27.242Z,-29
2023-03-02T22:09:28.792Z,-28.6
2023-03-02T22:11:30.132Z,-28.9
2023-03-02T22:13:31.269Z,-28.7
2023-03-02T22:15:33.274Z,-28.6
2023-03-02T22:17:35.183Z,-28.6
2023-03-02T22:21:38.507Z,-28.7
2023-03-02T22:23:40.154Z,-28.6
2023-03-02T22:25:41.306Z,-28.6
2023-03-02T22:27:42.464Z,-28.8
2023-03-02T22:31:46.037Z,-28.7
2023-03-02T22:33:48.106Z,-28.9
2023-03-02T22:35:49.049Z,-28.5
2023-03-02T22:37:50.749Z,-28.7
2023-03-02T22:43:55.571Z,-28.6
2023-03-02T22:45:57.670Z,-28.7
2023-03-02T22:47:59.180Z,-28.7
2023-03-02T22:50:00.706Z,-28.9
2023-03-02T22:52:02.234Z,-28.6
2023-03-02T22:54:03.460Z,-28.8
2023-03-02T22:58:07.258Z,-28.5
2023-03-02T23:00:08.408Z,-28.7
2023-03-02T23:02:09.556Z,-28.7
2023-03-02T23:04:10.755Z,-28.7
2023-03-02T23:08:14.534Z,-28.8
2023-03-02T23:10:16.402Z,-28.8
2023-03-02T23:14:19.809Z,-28.6
2023-03-02T23:16:21.654Z,-28.7
2023-03-02T23:18:23.254Z,-28.9
2023-03-02T23:20:24.772Z,-28.5
2023-03-02T23:25:11.762Z,-28.8
2023-03-02T23:27:13.785Z,-28.7
2023-03-02T23:29:15.491Z,-28.6
2023-03-02T23:31:17.087Z,-28.7
2023-03-02T23:33:18.755Z,-28.7
2023-03-02T23:35:20.249Z,-28.9
2023-03-02T23:37:21.389Z,-28.8
2023-03-02T23:41:24.362Z,-28.5
2023-03-02T23:43:25.982Z,-28.5
2023-03-02T23:45:27.348Z,-28.7
2023-03-02T23:47:28.910Z,-28.5
2023-03-02T23:53:33.702Z,-28.6
2023-03-02T23:55:35.754Z,-28.5
2023-03-02T23:57:36.894Z,-28.4
2023-03-02T23:59:38.184Z,-28.7
